createdAt,value
2022-11-21T00:01:53.202Z,82.68
2022-11-21T00:04:22.930Z,82.43
2022-11-21T00:06:53.093Z,82.66
2022-11-21T00:09:23.010Z,83.01
2022-11-21T00:11:53.098Z,83.18
2022-11-21T00:14:23.146Z,82.96
2022-11-21T00:16:57.167Z,82.98
2022-11-21T00:19:27.590Z,82.43
2022-11-21T00:21:57.683Z,82.60
2022-11-21T00:24:28.046Z,82.65
2022-11-21T00:26:58.592Z,82.83
2022-11-21T00:29:29.181Z,82.65
2022-11-21T00:31:59.443Z,82.71
2022-11-21T00:34:29.669Z,82.52
2022-11-21T00:37:00.376Z,82.29
2022-11-21T00:39:32.802Z,82.05
2022-11-21T00:42:03.127Z,82.08
2022-11-21T00:44:32.050Z,81.95
2022-11-21T00:47:02.447Z,82.13
2022-11-21T00:49:32.843Z,82.09
2022-11-21T00:52:03.337Z,81.97
2022-11-21T00:54:33.327Z,81.98
2022-11-21T00:57:03.167Z,81.89
2022-11-21T00:59:34.011Z,81.82
2022-11-21T01:02:05.775Z,81.50
2022-11-21T01:04:36.087Z,81.14
2022-11-21T01:07:06.824Z,81.29
2022-11-21T01:09:37.200Z,81.02
2022-11-21T01:12:07.829Z,81.12
2022-11-21T01:14:37.855Z,81.08
2022-11-21T01:17:07.796Z,80.79
2022-11-21T01:19:38.062Z,80.78
2022-11-21T01:22:08.775Z,80.17
2022-11-21T01:24:39.017Z,80.11
2022-11-21T01:27:08.698Z,79.81
2022-11-21T01:29:39.349Z,79.78
2022-11-21T01:32:09.689Z,79.46
2022-11-21T01:34:38.842Z,79.40
2022-11-21T01:37:09.153Z,79.76
2022-11-21T01:39:39.626Z,79.69
2022-11-21T01:42:14.090Z,79.83
2022-11-21T01:44:53.808Z,79.22
2022-11-21T01:47:24.118Z,78.97
2022-11-21T01:50:12.917Z,78.60
2022-11-21T01:52:43.649Z,78.60
2022-11-21T01:55:14.044Z,78.81
2022-11-21T01:57:48.917Z,78.94
2022-11-21T02:00:37.425Z,79.33
2022-11-21T02:03:13.772Z,79.26
2022-11-21T02:05:43.886Z,79.49
2022-11-21T02:08:21.048Z,79.65
2022-11-21T02:11:36.694Z,79.84
2022-11-21T02:14:07.439Z,79.94
2022-11-21T02:16:37.663Z,80.19
2022-11-21T02:19:16.304Z,80.28
2022-11-21T02:22:08.620Z,80.49
2022-11-21T02:24:58.879Z,80.66
2022-11-21T02:27:30.136Z,80.58
2022-11-21T02:30:02.343Z,80.48
2022-11-21T02:32:37.753Z,80.71
2022-11-21T02:35:09.400Z,80.56
2022-11-21T02:37:39.904Z,80.61
2022-11-21T02:40:23.167Z,80.92
2022-11-21T02:43:01.585Z,80.90
2022-11-21T02:45:41.368Z,80.88
2022-11-21T02:48:12.342Z,81.00
2022-11-21T02:50:47.931Z,81.14
2022-11-21T02:53:19.842Z,81.02
2022-11-21T02:55:49.897Z,80.90
2022-11-21T02:58:20.460Z,81.28
2022-11-21T03:00:50.826Z,81.26
2022-11-21T03:03:21.568Z,81.23
2022-11-21T03:05:52.111Z,81.48
2022-11-21T03:08:22.276Z,81.47
2022-11-21T03:10:51.832Z,81.46
2022-11-21T03:13:21.883Z,81.66
2022-11-21T03:15:52.405Z,81.35
2022-11-21T03:18:22.551Z,81.30
2022-11-21T03:20:53.044Z,81.37
2022-11-21T03:23:23.066Z,81.43
2022-11-21T03:25:53.326Z,81.58
2022-11-21T03:28:23.566Z,81.46
2022-11-21T03:30:53.742Z,81.52
2022-11-21T03:33:23.871Z,81.44
2022-11-21T03:35:54.027Z,81.26
2022-11-21T03:38:24.057Z,81.36
2022-11-21T03:40:54.462Z,81.32
2022-11-21T03:43:24.541Z,81.35
2022-11-21T03:45:54.150Z,81.40
2022-11-21T03:48:23.700Z,81.38
2022-11-21T03:50:53.954Z,81.20
2022-11-21T03:53:22.781Z,81.47
2022-11-21T03:55:51.672Z,81.25
2022-11-21T03:58:21.920Z,81.17
2022-11-21T04:00:51.751Z,81.23
2022-11-21T04:03:22.007Z,81.14
2022-11-21T04:05:52.171Z,81.18
2022-11-21T04:08:22.239Z,81.22
2022-11-21T04:10:53.589Z,81.02
2022-11-21T04:13:24.597Z,81.12
2022-11-21T04:15:54.556Z,81.10
2022-11-21T04:18:24.915Z,80.97
2022-11-21T04:21:02.574Z,80.91
2022-11-21T04:23:33.198Z,80.84
2022-11-21T04:26:04.507Z,80.91
2022-11-21T04:28:34.947Z,80.65
2022-11-21T04:31:11.057Z,80.86
2022-11-21T04:33:42.146Z,80.79
2022-11-21T04:36:11.276Z,80.31
2022-11-21T04:38:42.487Z,80.34
2022-11-21T04:41:12.856Z,80.38
2022-11-21T04:43:44.695Z,80.34
2022-11-21T04:46:13.483Z,80.51
2022-11-21T04:48:44.002Z,80.53
2022-11-21T04:51:14.242Z,80.46
2022-11-21T04:53:44.738Z,80.53
2022-11-21T04:56:16.884Z,80.52
2022-11-21T04:58:47.397Z,80.52
2022-11-21T05:01:18.000Z,80.45
2022-11-21T05:03:48.510Z,80.38
2022-11-21T05:06:18.790Z,80.20
2022-11-21T05:08:54.001Z,80.14
2022-11-21T05:11:45.911Z,80.03
2022-11-21T05:14:16.301Z,80.04
2022-11-21T05:16:46.578Z,80.46
2022-11-21T05:19:16.953Z,80.47
2022-11-21T05:21:47.425Z,80.47
2022-11-21T05:24:17.729Z,80.53
2022-11-21T05:26:47.926Z,80.87
2022-11-21T05:29:22.750Z,80.56
2022-11-21T05:31:57.257Z,80.60
2022-11-21T05:34:28.182Z,80.54
2022-11-21T05:37:01.400Z,81.03
2022-11-21T05:39:31.915Z,80.54
2022-11-21T05:42:03.338Z,80.61
2022-11-21T05:44:33.516Z,80.86
2022-11-21T05:47:03.577Z,80.66
2022-11-21T05:49:33.523Z,80.85
2022-11-21T05:52:04.091Z,80.87
2022-11-21T05:54:34.424Z,80.66
2022-11-21T05:57:06.005Z,80.76
2022-11-21T05:59:36.004Z,80.81
2022-11-21T06:02:24.879Z,80.73
2022-11-21T06:04:58.748Z,80.41
2022-11-21T06:07:31.175Z,80.43
2022-11-21T06:10:00.808Z,80.33
2022-11-21T06:12:32.711Z,80.45
2022-11-21T06:15:02.825Z,80.55
2022-11-21T06:17:33.630Z,80.46
2022-11-21T06:20:05.201Z,80.38
2022-11-21T06:22:35.347Z,80.67
2022-11-21T06:25:04.305Z,80.38
2022-11-21T06:27:34.765Z,80.58
2022-11-21T06:30:04.940Z,80.65
2022-11-21T06:32:38.616Z,80.51
2022-11-21T06:35:08.304Z,80.57
2022-11-21T06:37:38.649Z,80.55
2022-11-21T06:40:09.261Z,80.50
2022-11-21T06:42:39.088Z,80.70
2022-11-21T06:45:08.992Z,80.91
2022-11-21T06:47:38.969Z,81.31
2022-11-21T06:50:09.937Z,81.31
2022-11-21T06:52:39.878Z,80.91
2022-11-21T06:55:11.112Z,81.18
2022-11-21T06:57:41.147Z,81.12
2022-11-21T07:00:11.755Z,81.33
2022-11-21T07:02:42.086Z,81.55
2022-11-21T07:05:14.799Z,81.73
2022-11-21T07:07:45.753Z,81.62
2022-11-21T07:10:17.278Z,81.95
2022-11-21T07:13:07.185Z,82.02
2022-11-21T07:15:37.201Z,81.83
2022-11-21T07:18:07.423Z,81.81
2022-11-21T07:20:37.061Z,81.95
2022-11-21T07:23:07.639Z,82.08
2022-11-21T07:25:37.047Z,82.15
2022-11-21T07:28:08.674Z,82.20
2022-11-21T07:30:39.187Z,81.65
2022-11-21T07:33:09.816Z,81.82
2022-11-21T07:35:39.407Z,81.48
2022-11-21T07:38:10.150Z,81.70
2022-11-21T07:40:40.520Z,81.42
2022-11-21T07:43:13.679Z,81.39
2022-11-21T07:45:43.711Z,81.50
2022-11-21T07:48:16.141Z,81.59
2022-11-21T07:50:46.392Z,81.71
2022-11-21T07:53:16.415Z,81.81
2022-11-21T07:55:46.848Z,81.53
2022-11-21T07:58:17.935Z,81.68
2022-11-21T08:00:47.940Z,81.42
2022-11-21T08:03:17.978Z,81.56
2022-11-21T08:05:48.074Z,81.55
2022-11-21T08:08:18.222Z,81.76
2022-11-21T08:10:48.253Z,81.63
2022-11-21T08:13:18.185Z,81.71
2022-11-21T08:15:48.220Z,81.73
2022-11-21T08:18:19.759Z,81.86
2022-11-21T08:20:49.878Z,81.84
2022-11-21T08:23:20.199Z,82.10
2022-11-21T08:25:52.364Z,82.23
2022-11-21T08:28:22.486Z,82.33
2022-11-21T08:30:52.653Z,82.25
2022-11-21T08:33:26.127Z,81.86
2022-11-21T08:35:56.155Z,82.20
2022-11-21T08:38:26.100Z,82.24
2022-11-21T08:41:17.825Z,82.52
2022-11-21T08:43:48.129Z,82.24
2022-11-21T08:46:17.814Z,81.95
2022-11-21T08:48:47.423Z,81.86
2022-11-21T08:51:17.799Z,82.09
2022-11-21T08:53:47.748Z,82.09
2022-11-21T08:56:17.838Z,82.05
2022-11-21T08:58:47.902Z,82.35
2022-11-21T09:01:18.078Z,82.20
2022-11-21T09:03:48.281Z,82.33
2022-11-21T09:06:18.547Z,82.54
2022-11-21T09:08:48.488Z,82.25
2022-11-21T09:11:18.545Z,82.12
2022-11-21T09:14:09.577Z,81.96
2022-11-21T09:17:02.228Z,82.07
2022-11-21T09:19:32.971Z,81.23
2022-11-21T09:22:01.774Z,81.67
2022-11-21T09:24:32.660Z,81.58
2022-11-21T09:27:03.014Z,81.77
2022-11-21T09:29:33.319Z,81.27
2022-11-21T09:32:03.625Z,81.52
2022-11-21T09:34:33.699Z,81.80
2022-11-21T09:37:04.338Z,81.96
2022-11-21T09:39:34.684Z,81.97
2022-11-21T09:42:07.451Z,81.22
2022-11-21T09:44:48.245Z,81.76
2022-11-21T09:47:46.278Z,81.69
2022-11-21T09:50:16.700Z,81.07
2022-11-21T09:52:55.663Z,80.81
2022-11-21T09:55:38.431Z,80.54
2022-11-21T09:58:35.424Z,80.21
2022-11-21T10:01:06.081Z,80.60
2022-11-21T10:03:47.559Z,80.61
2022-11-21T10:06:24.639Z,80.52
2022-11-21T10:09:24.258Z,79.95
2022-11-21T10:12:40.710Z,80.11
2022-11-21T10:15:39.645Z,80.59
2022-11-21T10:18:31.476Z,80.32
2022-11-21T10:21:19.865Z,79.93
2022-11-21T10:24:23.167Z,79.74
2022-11-21T10:27:03.844Z,79.92
2022-11-21T10:29:42.315Z,79.42
2022-11-21T10:32:39.794Z,79.23
2022-11-21T10:35:31.427Z,79.78
2022-11-21T10:38:03.655Z,79.74
2022-11-21T10:41:05.821Z,79.94
2022-11-21T10:44:25.238Z,79.67
2022-11-21T10:47:01.994Z,79.24
2022-11-21T10:49:34.940Z,79.35
2022-11-21T10:52:24.986Z,79.16
2022-11-21T10:55:14.859Z,78.57
2022-11-21T10:57:47.721Z,78.54
2022-11-21T11:00:25.893Z,78.49
2022-11-21T11:03:00.566Z,78.76
2022-11-21T11:05:32.101Z,78.71
2022-11-21T11:08:13.537Z,78.80
2022-11-21T11:11:01.848Z,78.90
2022-11-21T11:13:51.190Z,78.75
2022-11-21T11:16:22.761Z,78.38
2022-11-21T11:18:59.448Z,78.10
2022-11-21T11:21:47.362Z,77.66
2022-11-21T11:24:22.387Z,77.22
2022-11-21T11:26:58.686Z,77.08
2022-11-21T11:29:35.668Z,75.92
2022-11-21T11:32:21.146Z,76.26
2022-11-21T11:35:00.009Z,76.36
2022-11-21T11:37:41.488Z,75.65
2022-11-21T11:40:24.991Z,75.46
2022-11-21T11:43:47.071Z,75.35
2022-11-21T11:47:02.152Z,75.59
2022-11-21T11:50:05.202Z,74.46
2022-11-21T11:52:45.501Z,74.64
2022-11-21T11:55:27.581Z,74.04
2022-11-21T11:58:01.848Z,73.37
2022-11-21T12:00:51.636Z,73.94
2022-11-21T12:03:44.295Z,73.38
2022-11-21T12:07:41.152Z,73.49
2022-11-21T12:09:46.437Z,73.54
2022-11-21T12:12:42.389Z,73.23
2022-11-21T12:15:47.065Z,73.61
2022-11-21T12:18:50.557Z,73.09
2022-11-21T12:21:21.379Z,73.50
2022-11-21T12:23:58.501Z,73.63
2022-11-21T12:26:37.346Z,74.03
2022-11-21T12:29:33.268Z,74.12
2022-11-21T12:32:20.045Z,74.26
2022-11-21T12:35:20.050Z,74.10
2022-11-21T12:38:05.128Z,74.26
2022-11-21T12:41:48.169Z,74.84
2022-11-21T12:44:23.640Z,75.42
2022-11-21T12:47:14.622Z,75.80
2022-11-21T12:50:21.710Z,75.69
2022-11-21T12:53:23.975Z,73.75
2022-11-21T12:56:03.903Z,74.08
2022-11-21T12:58:43.010Z,73.81
2022-11-21T13:01:28.811Z,73.93
2022-11-21T13:04:06.512Z,74.60
2022-11-21T13:06:45.064Z,74.37
2022-11-21T13:09:21.164Z,73.53
2022-11-21T13:12:05.850Z,73.84
2022-11-21T13:14:45.209Z,73.87
2022-11-21T13:17:24.570Z,73.31
2022-11-21T13:20:01.131Z,72.36
2022-11-21T13:22:36.841Z,71.89
2022-11-21T13:25:33.175Z,72.46
2022-11-21T13:28:18.975Z,72.65
2022-11-21T13:30:51.666Z,72.88
2022-11-21T13:33:37.764Z,72.34
2022-11-21T13:36:37.521Z,72.07
2022-11-21T13:39:08.367Z,72.16
2022-11-21T13:42:20.647Z,72.49
2022-11-21T13:44:51.670Z,72.47
2022-11-21T13:47:30.544Z,72.28
2022-11-21T13:50:30.854Z,72.18
2022-11-21T13:53:10.753Z,72.71
2022-11-21T13:56:05.079Z,72.77
2022-11-21T13:59:04.148Z,73.25
2022-11-21T14:01:45.721Z,73.70
2022-11-21T14:04:30.790Z,74.12
2022-11-21T14:07:28.574Z,74.38
2022-11-21T14:10:02.706Z,74.84
2022-11-21T14:12:38.309Z,75.16
2022-11-21T14:15:25.554Z,75.26
2022-11-21T14:17:59.217Z,75.34
2022-11-21T14:20:36.734Z,75.51
2022-11-21T14:23:23.561Z,75.59
2022-11-21T14:25:58.066Z,75.74
2022-11-21T14:28:29.938Z,76.10
2022-11-21T14:31:07.612Z,75.99
2022-11-21T14:33:40.150Z,76.17
2022-11-21T14:36:16.846Z,76.08
2022-11-21T14:39:07.506Z,76.44
2022-11-21T14:41:43.490Z,76.16
2022-11-21T14:44:15.721Z,76.05
2022-11-21T14:46:47.459Z,76.22
2022-11-21T14:49:22.212Z,76.28
2022-11-21T14:52:19.036Z,76.17
2022-11-21T14:57:47.712Z,76.44
2022-11-21T15:00:57.521Z,76.64
2022-11-21T15:03:24.501Z,76.73
2022-11-21T15:06:07.836Z,76.86
2022-11-21T15:11:51.863Z,76.85
2022-11-21T15:14:36.729Z,76.96
2022-11-21T15:17:14.342Z,76.91
2022-11-21T15:19:47.206Z,76.99
2022-11-21T15:22:29.553Z,77.10
2022-11-21T15:25:25.354Z,77.09
2022-11-21T15:28:02.720Z,77.11
2022-11-21T15:30:36.357Z,77.18
2022-11-21T15:33:19.584Z,77.24
2022-11-21T15:35:55.109Z,77.19
2022-11-21T15:38:45.131Z,77.05
2022-11-21T15:41:15.771Z,77.07
2022-11-21T15:43:51.501Z,77.05
2022-11-21T15:46:27.428Z,76.96
2022-11-21T15:49:31.024Z,76.85
2022-11-21T15:52:06.937Z,76.49
2022-11-21T15:54:41.461Z,76.82
2022-11-21T15:57:16.437Z,76.92
2022-11-21T15:59:46.530Z,76.87
2022-11-21T16:02:16.978Z,77.11
2022-11-21T16:04:47.009Z,77.11
2022-11-21T16:07:17.604Z,77.26
2022-11-21T16:09:50.145Z,77.23
2022-11-21T16:12:22.309Z,77.31
2022-11-21T16:14:52.765Z,77.03
2022-11-21T16:17:23.155Z,77.01
2022-11-21T16:19:53.191Z,76.98
2022-11-21T16:22:23.695Z,76.70
2022-11-21T16:24:54.181Z,77.13
2022-11-21T16:27:24.231Z,76.86
2022-11-21T16:29:53.033Z,76.61
2022-11-21T16:32:26.810Z,76.79
2022-11-21T16:34:58.920Z,76.79
2022-11-21T16:37:31.372Z,76.72
2022-11-21T16:40:00.949Z,76.26
2022-11-21T16:42:31.119Z,76.16
2022-11-21T16:45:01.174Z,76.12
2022-11-21T16:47:31.501Z,75.74
2022-11-21T16:50:01.494Z,75.99
2022-11-21T16:52:36.047Z,76.11
2022-11-21T16:55:06.938Z,76.00
2022-11-21T16:57:37.351Z,75.82
2022-11-21T17:00:08.164Z,75.52
2022-11-21T17:02:38.850Z,75.40
2022-11-21T17:05:09.124Z,75.22
2022-11-21T17:07:39.242Z,75.46
2022-11-21T17:10:09.910Z,75.12
2022-11-21T17:12:41.106Z,75.04
2022-11-21T17:15:14.284Z,75.03
2022-11-21T17:17:44.797Z,75.17
2022-11-21T17:20:14.567Z,75.21
2022-11-21T17:22:45.198Z,74.94
2022-11-21T17:25:15.664Z,75.18
2022-11-21T17:27:47.145Z,75.33
2022-11-21T17:30:19.394Z,75.51
2022-11-21T17:32:49.735Z,75.59
2022-11-21T17:35:19.717Z,75.30
2022-11-21T17:37:50.040Z,75.09
2022-11-21T17:40:20.173Z,75.13
2022-11-21T17:42:50.125Z,75.02
2022-11-21T17:45:20.171Z,74.92
2022-11-21T17:47:50.932Z,75.15
2022-11-21T17:50:21.530Z,75.09
2022-11-21T17:52:51.659Z,75.27
2022-11-21T17:55:21.765Z,75.25
2022-11-21T17:57:52.123Z,74.95
2022-11-21T18:00:22.240Z,74.99
2022-11-21T18:02:51.486Z,74.87
2022-11-21T18:05:22.366Z,75.20
2022-11-21T18:07:53.129Z,75.24
2022-11-21T18:10:42.255Z,75.62
2022-11-21T18:13:13.486Z,75.48
2022-11-21T18:15:44.061Z,75.71
2022-11-21T18:18:16.095Z,75.78
2022-11-21T18:20:46.446Z,76.05
2022-11-21T18:23:16.540Z,75.83
2022-11-21T18:25:47.458Z,75.72
2022-11-21T18:28:17.701Z,75.87
2022-11-21T18:30:50.711Z,76.15
2022-11-21T18:33:20.400Z,76.31
2022-11-21T18:35:50.755Z,76.60
2022-11-21T18:38:46.885Z,76.90
2022-11-21T18:41:30.456Z,77.03
2022-11-21T18:44:05.473Z,77.31
2022-11-21T18:46:38.176Z,77.33
2022-11-21T18:49:08.594Z,77.44
2022-11-21T18:51:39.227Z,77.64
2022-11-21T18:54:11.391Z,77.53
2022-11-21T18:56:42.089Z,78.08
2022-11-21T18:59:12.342Z,77.72
2022-11-21T19:01:42.822Z,78.00
2022-11-21T19:04:13.298Z,78.26
2022-11-21T19:06:43.814Z,78.15
2022-11-21T19:09:15.333Z,78.30
2022-11-21T19:11:45.864Z,78.66
2022-11-21T19:14:15.390Z,78.65
2022-11-21T19:16:45.366Z,78.67
2022-11-21T19:22:07.164Z,78.75
2022-11-21T19:24:40.319Z,78.57
2022-11-21T19:27:14.145Z,78.53
2022-11-21T19:29:44.196Z,78.66
2022-11-21T19:32:15.758Z,78.69
2022-11-21T19:34:45.682Z,78.89
2022-11-21T19:37:18.265Z,78.59
2022-11-21T19:39:51.654Z,78.85
2022-11-21T19:42:24.078Z,78.95
2022-11-21T19:44:54.196Z,78.89
2022-11-21T19:47:24.341Z,78.88
2022-11-21T19:49:54.339Z,78.77
2022-11-21T19:52:28.173Z,78.85
2022-11-21T19:54:58.754Z,78.87
2022-11-21T19:57:28.996Z,78.97
2022-11-21T20:00:00.475Z,78.91
2022-11-21T20:02:31.022Z,78.79
2022-11-21T20:05:01.341Z,78.75
2022-11-21T20:07:33.758Z,78.60
2022-11-21T20:10:04.670Z,78.42
2022-11-21T20:12:36.853Z,78.76
2022-11-21T20:15:07.749Z,78.91
2022-11-21T20:17:38.103Z,78.85
2022-11-21T20:20:09.124Z,78.33
2022-11-21T20:22:39.474Z,78.56
2022-11-21T20:25:10.093Z,78.85
2022-11-21T20:27:40.594Z,78.74
2022-11-21T20:30:11.564Z,78.91
2022-11-21T20:32:41.537Z,78.85
2022-11-21T20:35:11.986Z,78.75
2022-11-21T20:37:42.300Z,78.75
2022-11-21T20:40:12.992Z,78.64
2022-11-21T20:42:41.912Z,78.95
2022-11-21T20:46:06.512Z,78.85
2022-11-21T20:48:10.049Z,79.11
2022-11-21T20:51:34.975Z,79.60
2022-11-21T20:56:25.283Z,79.96
2022-11-21T20:58:55.258Z,80.01
2022-11-21T21:01:25.422Z,79.89
2022-11-21T21:03:57.120Z,79.95
2022-11-21T21:06:27.184Z,80.06
2022-11-21T21:08:57.599Z,79.97
2022-11-21T21:14:18.690Z,79.54
2022-11-21T21:16:49.109Z,79.59
2022-11-21T21:19:18.781Z,79.66
2022-11-21T21:21:48.977Z,79.54
2022-11-21T21:24:19.402Z,79.59
2022-11-21T21:26:50.439Z,79.60
2022-11-21T21:29:21.598Z,79.63
2022-11-21T21:31:52.610Z,79.93
2022-11-21T21:34:23.648Z,79.86
2022-11-21T21:36:53.712Z,80.00
2022-11-21T21:39:23.303Z,79.88
2022-11-21T21:41:52.878Z,80.01
2022-11-21T21:44:25.943Z,79.93
2022-11-21T21:46:59.102Z,79.99
2022-11-21T21:49:29.943Z,80.10
2022-11-21T21:51:59.917Z,80.13
2022-11-21T21:54:31.340Z,79.72
2022-11-21T21:57:02.166Z,79.52
2022-11-21T21:59:33.506Z,79.50
2022-11-21T22:02:03.813Z,79.60
2022-11-21T22:04:34.274Z,79.79
2022-11-21T22:07:06.002Z,79.68
2022-11-21T22:09:36.383Z,79.71
2022-11-21T22:12:06.595Z,79.86
2022-11-21T22:14:36.876Z,80.08
2022-11-21T22:17:07.159Z,80.16
2022-11-21T22:19:37.389Z,80.08
2022-11-21T22:22:07.424Z,80.28
2022-11-21T22:24:39.576Z,80.15
2022-11-21T22:27:10.621Z,80.05
2022-11-21T22:29:40.641Z,79.83
2022-11-21T22:32:14.125Z,79.79
2022-11-21T22:34:48.367Z,79.91
2022-11-21T22:37:17.957Z,80.10
2022-11-21T22:39:46.753Z,80.06
2022-11-21T22:42:17.012Z,80.11
2022-11-21T22:44:47.140Z,80.27
2022-11-21T22:47:17.111Z,80.26
2022-11-21T22:49:47.115Z,80.24
2022-11-21T22:52:17.541Z,79.94
2022-11-21T22:54:47.646Z,79.96
2022-11-21T22:57:18.159Z,79.93
2022-11-21T22:59:48.202Z,79.79
2022-11-21T23:02:18.808Z,80.05
2022-11-21T23:04:47.758Z,80.09
2022-11-21T23:07:16.606Z,80.02
2022-11-21T23:09:46.937Z,80.03
2022-11-21T23:12:17.168Z,80.32
2022-11-21T23:14:47.616Z,80.25
2022-11-21T23:17:18.086Z,80.36
2022-11-21T23:19:48.292Z,80.11
2022-11-21T23:22:18.312Z,80.16
2022-11-21T23:24:48.659Z,80.48
2022-11-21T23:27:18.773Z,80.70
2022-11-21T23:29:49.138Z,80.78
2022-11-21T23:32:19.471Z,80.61
2022-11-21T23:34:49.864Z,80.63
2022-11-21T23:37:19.450Z,81.01
2022-11-21T23:39:49.743Z,80.72
2022-11-21T23:42:20.445Z,81.00
2022-11-21T23:44:50.292Z,81.06
2022-11-21T23:47:19.703Z,81.16
2022-11-21T23:49:50.319Z,81.12
2022-11-21T23:52:19.721Z,80.96
2022-11-21T23:54:51.564Z,80.70
2022-11-21T23:57:22.087Z,80.78
2022-11-21T23:59:52.224Z,80.43
